EST,Max TemperatureF,Mean TemperatureF,Min TemperatureF,Max Dew PointF,MeanDew PointF,Min DewpointF,Max Humidity, Mean Humidity, Min Humidity, Max Sea Level PressureIn, Mean Sea Level PressureIn, Min Sea Level PressureIn, Max VisibilityMiles, Mean VisibilityMiles, Min VisibilityMiles, Max Wind SpeedMPH, Mean Wind SpeedMPH, Max Gust SpeedMPH,PrecipitationIn, CloudCover, Events, WindDirDegrees
2012-12-1,57,50,42,45,41,37,100,74,51,30.36,30.31,30.28,10,10,10,8,3,,0.00,0,,191
2012-12-2,62,54,46,50,42,37,82,65,48,30.31,30.27,30.22,10,10,9,15,5,24,0.00,2,,221
2012-12-3,64,58,51,52,51,48,100,78,59,30.32,30.27,30.24,10,10,5,12,5,17,0.00,3,,237
2012-12-4,64,58,51,50,49,46,82,72,59,30.28,30.23,30.16,10,10,10,13,5,22,0.00,3,,229
2012-12-5,57,46,35,52,38,27,100,74,40,30.27,30.21,30.14,10,10,2,10,7,,0.00,2,,321
2012-12-6,51,42,33,39,27,16,93,59,38,30.20,30.16,30.12,10,10,7,7,4,,0.00,3,,108
2012-12-7,,,,,,,,,,,,,,,,,,,,,,
2012-12-8,,,,,,,,,,,,,,,,,,,,,,
2012-12-9,,,,,,,,,,,,,,,,,,,,,,
2012-12-10,,,,,,,,,,,,,,,,,,,,,,
2012-12-11,,,,,,,,,,,,,,,,,,,,,,
2012-12-12,30,28,26,30,28,27,100,99,93,30.27,30.25,30.23,10,10,8,7,4,,0.00,0,,61
2012-12-13,48,37,26,28,21,16,100,56,34,30.33,30.28,30.23,10,10,10,6,2,,0.00,0,,46
2012-12-14,51,40,30,34,26,21,93,59,30,30.33,30.26,30.19,10,10,10,7,2,,0.00,0,,264
2012-12-15,55,46,37,36,26,18,66,46,23,30.19,30.08,29.95,10,10,10,7,2,,0.00,2,,145
2012-12-16,55,48,42,54,48,37,100,92,67,29.99,29.90,29.80,10,10,3,17,5,23,0.00,3,,220
2012-12-17,55,48,42,52,47,43,100,97,77,29.83,29.73,29.61,10,9,1,13,3,,0.00,3,,226
2012-12-18,44,40,35,45,37,30,100,94,70,29.90,29.79,29.64,10,9,2,15,8,29,0.00,2,,261
2012-12-19,51,45,39,39,35,30,87,72,58,30.08,30.01,29.86,10,10,10,16,7,,0.00,0,,238
2012-12-20,48,42,33,46,39,28,100,84,62,30.05,29.75,29.50,10,9,4,20,7,31,0.00,2,,150
2012-12-21,32,28,23,28,24,21,100,95,80,29.90,29.67,29.54,10,5,1,24,15,34,0.00,2,,269
2012-12-22,33,27,21,25,21,19,100,82,65,30.15,30.06,29.89,10,9,2,22,12,32,0.00,0,,265
2012-12-23,46,36,26,39,23,12,100,60,39,30.07,30.01,29.95,10,10,10,14,7,22,0.00,1,,240
2012-12-24,46,42,37,46,42,37,100,100,100,29.97,29.86,29.77,10,5,0,12,4,,0.00,5,,237
2012-12-25,46,42,37,41,39,37,100,93,76,30.06,29.98,29.92,10,7,0,8,3,16,0.00,3,,112
2012-12-26,39,34,28,39,35,28,100,99,93,29.92,29.59,29.41,10,7,2,18,9,34,0.00,3,,133
2012-12-27,28,26,23,27,25,23,100,99,93,30.05,29.94,29.72,10,7,0,20,11,33,0.00,1,,290
2012-12-28,37,28,21,34,26,21,100,93,65,30.05,29.97,29.76,10,10,8,8,1,,0.00,2,,97
2012-12-29,42,33,24,37,31,23,100,96,75,30.00,29.76,29.62,10,8,1,20,8,29,0.00,3,,271
2012-12-30,30,24,19,23,19,18,100,79,64,30.34,30.31,30.02,10,10,5,13,6,,0.00,0,,268
2012-12-31,37,28,19,21,18,14,100,65,41,30.30,30.19,30.06,10,10,10,10,3,,0.00,1,,235